Vermilionville, Illinois
Current Conditions -  °F | °C
As of 12:15 AM on Wednesday 22 Oct 2014 (Local Time) from KVYS Reporting Station
Clear Clear  
Wind Chill: 37°   Ceiling: Unl
Heat Index: 40°   Visibility: 10mi
Dew Point: 36°   Wind: 5mph
Humidity: 84%   Direction: 40°NE
Pressure: 30.27"   Gusts: NA
Location:  41.2206°N, 89.0553°W
Report Text: KVYS 220515Z AUTO 04004KT 10SM CLR 05/02 A3027 RMK AO2 T00450020
Loading
Personal Weather Stations






























Interactive Weather Map
Tropical Storm Tracking
New forecast layout! Learn more

10-Day Weather Forecast

Advertisements
Track Severe Weather on mobile